Terminal Aerodrome Forecast
Issued by NWS

Home | Current Version | Previous Version | Text Only | Print | Product List | Glossary On
Versions: 1 2 3 4 5 6 7 8 9 10 11 12 13
000
FTUS45 KRIW 222322
TAFBPI
TAF
KBPI 222322Z 2300/2324 30015G25KT P6SM FEW110
     FM230100 33009KT P6SM FEW110
     FM230700 VRB05KT P6SM SKC
     FM231800 28011KT P6SM SKC
     FM232000 30015G25KT P6SM FEW110=

USA.gov is the U.S. government's official web portal to all federal, state and local government web resources and services.